sensor_id;sensor_type;location;lat;lon;timestamp;P1;durP1;ratioP1;P2;durP2;ratioP2
990;SDS011;484;48.128;11.602;2023-11-21T00:02:01;3.23;;;1.00;;
990;SDS011;484;48.128;11.602;2023-11-21T00:04:48;3.80;;;1.57;;
990;SDS011;484;48.128;11.602;2023-11-21T00:07:34;12.03;;;1.37;;
990;SDS011;484;48.128;11.602;2023-11-21T00:10:21;1.40;;;1.20;;
990;SDS011;484;48.128;11.602;2023-11-21T00:13:06;2.33;;;1.10;;
990;SDS011;484;48.128;11.602;2023-11-21T00:15:52;2.00;;;1.30;;
990;SDS011;484;48.128;11.602;2023-11-21T00:18:38;3.53;;;0.90;;
990;SDS011;484;48.128;11.602;2023-11-21T00:21:23;1.33;;;0.90;;
990;SDS011;484;48.128;11.602;2023-11-21T00:24:08;1.63;;;1.10;;
990;SDS011;484;48.128;11.602;2023-11-21T00:26:55;1.10;;;1.00;;
990;SDS011;484;48.128;11.602;2023-11-21T00:29:41;1.73;;;1.17;;
990;SDS011;484;48.128;11.602;2023-11-21T00:32:26;1.37;;;1.17;;
990;SDS011;484;48.128;11.602;2023-11-21T00:35:12;1.33;;;1.23;;
990;SDS011;484;48.128;11.602;2023-11-21T00:37:57;1.83;;;1.00;;
990;SDS011;484;48.128;11.602;2023-11-21T00:40:43;1.50;;;1.00;;
990;SDS011;484;48.128;11.602;2023-11-21T00:43:30;1.63;;;0.93;;
990;SDS011;484;48.128;11.602;2023-11-21T00:46:16;1.10;;;1.00;;
990;SDS011;484;48.128;11.602;2023-11-21T00:49:02;3.77;;;1.30;;
990;SDS011;484;48.128;11.602;2023-11-21T00:51:48;4.80;;;2.20;;
990;SDS011;484;48.128;11.602;2023-11-21T00:54:34;1.13;;;0.90;;
990;SDS011;484;48.128;11.602;2023-11-21T00:57:19;5.90;;;1.27;;
990;SDS011;484;48.128;11.602;2023-11-21T01:00:07;2.73;;;1.53;;
990;SDS011;484;48.128;11.602;2023-11-21T01:02:57;5.03;;;1.10;;
990;SDS011;484;48.128;11.602;2023-11-21T01:05:42;2.30;;;1.30;;
990;SDS011;484;48.128;11.602;2023-11-21T01:08:28;4.37;;;1.30;;
990;SDS011;484;48.128;11.602;2023-11-21T01:11:13;3.10;;;1.10;;
990;SDS011;484;48.128;11.602;2023-11-21T01:13:59;8.23;;;1.13;;
990;SDS011;484;48.128;11.602;2023-11-21T01:16:46;1.33;;;1.20;;
990;SDS011;484;48.128;11.602;2023-11-21T01:19:32;0.80;;;0.80;;
990;SDS011;484;48.128;11.602;2023-11-21T01:22:17;9.03;;;2.70;;
990;SDS011;484;48.128;11.602;2023-11-21T01:25:09;0.80;;;0.80;;
990;SDS011;484;48.128;11.602;2023-11-21T01:27:55;2.73;;;1.50;;
990;SDS011;484;48.128;11.602;2023-11-21T01:30:40;7.00;;;1.43;;
990;SDS011;484;48.128;11.602;2023-11-21T01:33:27;2.30;;;0.90;;
990;SDS011;484;48.128;11.602;2023-11-21T01:36:12;0.90;;;0.70;;
990;SDS011;484;48.128;11.602;2023-11-21T01:38:58;3.07;;;1.30;;
990;SDS011;484;48.128;11.602;2023-11-21T01:41:44;1.67;;;1.20;;
990;SDS011;484;48.128;11.602;2023-11-21T01:44:29;2.40;;;1.13;;
990;SDS011;484;48.128;11.602;2023-11-21T01:47:15;1.47;;;1.37;;
990;SDS011;484;48.128;11.602;2023-11-21T01:50:03;2.47;;;1.20;;
990;SDS011;484;48.128;11.602;2023-11-21T01:52:49;6.33;;;1.50;;
990;SDS011;484;48.128;11.602;2023-11-21T01:55:35;2.13;;;0.77;;
990;SDS011;484;48.128;11.602;2023-11-21T01:58:20;2.23;;;1.40;;
990;SDS011;484;48.128;11.602;2023-11-21T02:01:06;2.17;;;0.90;;
990;SDS011;484;48.128;11.602;2023-11-21T02:03:52;6.83;;;1.20;;
990;SDS011;484;48.128;11.602;2023-11-21T02:06:39;2.00;;;0.93;;
990;SDS011;484;48.128;11.602;2023-11-21T02:09:25;3.13;;;1.13;;
990;SDS011;484;48.128;11.602;2023-11-21T02:12:12;1.73;;;1.63;;
990;SDS011;484;48.128;11.602;2023-11-21T02:14:58;1.13;;;0.97;;
990;SDS011;484;48.128;11.602;2023-11-21T02:17:43;2.43;;;1.30;;
990;SDS011;484;48.128;11.602;2023-11-21T02:20:29;1.60;;;1.50;;
990;SDS011;484;48.128;11.602;2023-11-21T02:23:20;1.63;;;1.50;;
990;SDS011;484;48.128;11.602;2023-11-21T02:26:07;4.40;;;0.90;;
990;SDS011;484;48.128;11.602;2023-11-21T02:28:53;1.60;;;1.20;;
990;SDS011;484;48.128;11.602;2023-11-21T02:31:39;1.20;;;1.03;;
990;SDS011;484;48.128;11.602;2023-11-21T02:34:31;1.37;;;1.00;;
990;SDS011;484;48.128;11.602;2023-11-21T02:37:17;1.07;;;1.00;;
990;SDS011;484;48.128;11.602;2023-11-21T02:40:05;3.23;;;1.30;;
990;SDS011;484;48.128;11.602;2023-11-21T02:42:53;2.10;;;1.07;;
990;SDS011;484;48.128;11.602;2023-11-21T02:45:38;2.20;;;1.10;;
990;SDS011;484;48.128;11.602;2023-11-21T02:48:25;0.90;;;0.90;;
990;SDS011;484;48.128;11.602;2023-11-21T02:51:11;3.33;;;1.20;;
990;SDS011;484;48.128;11.602;2023-11-21T02:53:56;2.60;;;0.90;;
990;SDS011;484;48.128;11.602;2023-11-21T02:56:45;0.70;;;0.70;;
990;SDS011;484;48.128;11.602;2023-11-21T02:59:31;1.93;;;0.93;;
990;SDS011;484;48.128;11.602;2023-11-21T03:02:16;1.73;;;1.10;;
990;SDS011;484;48.128;11.602;2023-11-21T03:05:02;2.13;;;0.77;;
990;SDS011;484;48.128;11.602;2023-11-21T03:07:48;1.00;;;1.00;;
990;SDS011;484;48.128;11.602;2023-11-21T03:10:34;1.73;;;0.80;;
990;SDS011;484;48.128;11.602;2023-11-21T03:13:21;1.07;;;0.97;;
990;SDS011;484;48.128;11.602;2023-11-21T03:16:07;2.23;;;0.80;;
990;SDS011;484;48.128;11.602;2023-11-21T03:18:53;1.10;;;0.90;;
990;SDS011;484;48.128;11.602;2023-11-21T03:21:38;1.30;;;1.20;;
990;SDS011;484;48.128;11.602;2023-11-21T03:24:24;1.63;;;1.10;;
990;SDS011;484;48.128;11.602;2023-11-21T03:27:10;2.60;;;1.27;;
990;SDS011;484;48.128;11.602;2023-11-21T03:29:57;2.60;;;1.17;;
990;SDS011;484;48.128;11.602;2023-11-21T03:32:43;2.30;;;0.90;;
990;SDS011;484;48.128;11.602;2023-11-21T03:35:28;2.20;;;0.90;;
990;SDS011;484;48.128;11.602;2023-11-21T03:38:14;3.67;;;1.20;;
990;SDS011;484;48.128;11.602;2023-11-21T03:40:59;3.50;;;0.80;;
990;SDS011;484;48.128;11.602;2023-11-21T03:43:45;1.13;;;0.90;;
990;SDS011;484;48.128;11.602;2023-11-21T03:46:32;1.83;;;1.00;;
990;SDS011;484;48.128;11.602;2023-11-21T03:49:17;1.00;;;0.80;;
990;SDS011;484;48.128;11.602;2023-11-21T03:52:03;1.63;;;1.03;;
990;SDS011;484;48.128;11.602;2023-11-21T03:54:49;1.27;;;0.97;;
990;SDS011;484;48.128;11.602;2023-11-21T03:57:34;2.73;;;0.93;;
990;SDS011;484;48.128;11.602;2023-11-21T04:00:20;1.23;;;1.13;;
990;SDS011;484;48.128;11.602;2023-11-21T04:03:07;1.40;;;1.00;;
990;SDS011;484;48.128;11.602;2023-11-21T04:05:52;3.10;;;1.23;;
990;SDS011;484;48.128;11.602;2023-11-21T04:08:38;0.90;;;0.90;;
990;SDS011;484;48.128;11.602;2023-11-21T04:11:23;0.83;;;0.77;;
990;SDS011;484;48.128;11.602;2023-11-21T04:14:09;0.93;;;0.80;;
990;SDS011;484;48.128;11.602;2023-11-21T04:16:54;2.50;;;1.17;;
990;SDS011;484;48.128;11.602;2023-11-21T04:19:41;3.13;;;0.80;;
990;SDS011;484;48.128;11.602;2023-11-21T04:22:26;1.57;;;0.80;;
990;SDS011;484;48.128;11.602;2023-11-21T04:25:13;1.20;;;1.10;;
990;SDS011;484;48.128;11.602;2023-11-21T04:27:59;4.30;;;1.07;;
990;SDS011;484;48.128;11.602;2023-11-21T04:30:44;2.30;;;0.80;;
990;SDS011;484;48.128;11.602;2023-11-21T04:33:30;1.00;;;0.60;;
990;SDS011;484;48.128;11.602;2023-11-21T04:36:17;0.90;;;0.90;;
990;SDS011;484;48.128;11.602;2023-11-21T04:39:03;1.20;;;1.00;;
990;SDS011;484;48.128;11.602;2023-11-21T04:41:48;1.33;;;0.60;;
990;SDS011;484;48.128;11.602;2023-11-21T04:44:33;0.90;;;0.90;;
990;SDS011;484;48.128;11.602;2023-11-21T04:47:19;0.63;;;0.60;;
990;SDS011;484;48.128;11.602;2023-11-21T04:50:05;0.60;;;0.60;;
990;SDS011;484;48.128;11.602;2023-11-21T04:52:52;2.30;;;0.83;;
990;SDS011;484;48.128;11.602;2023-11-21T04:55:38;1.20;;;1.07;;
990;SDS011;484;48.128;11.602;2023-11-21T04:58:23;2.93;;;1.13;;
990;SDS011;484;48.128;11.602;2023-11-21T05:01:09;1.07;;;0.97;;
990;SDS011;484;48.128;11.602;2023-11-21T05:03:55;3.20;;;0.83;;
990;SDS011;484;48.128;11.602;2023-11-21T05:06:41;3.90;;;0.80;;
990;SDS011;484;48.128;11.602;2023-11-21T05:09:28;3.63;;;1.53;;
990;SDS011;484;48.128;11.602;2023-11-21T05:12:16;1.67;;;1.00;;
990;SDS011;484;48.128;11.602;2023-11-21T05:15:02;2.13;;;0.90;;
990;SDS011;484;48.128;11.602;2023-11-21T05:17:53;3.00;;;0.97;;
990;SDS011;484;48.128;11.602;2023-11-21T05:20:39;1.23;;;0.90;;
990;SDS011;484;48.128;11.602;2023-11-21T05:23:24;0.97;;;0.90;;
990;SDS011;484;48.128;11.602;2023-11-21T05:26:11;1.30;;;1.10;;
990;SDS011;484;48.128;11.602;2023-11-21T05:28:57;1.20;;;1.10;;
990;SDS011;484;48.128;11.602;2023-11-21T05:31:42;1.60;;;0.83;;
990;SDS011;484;48.128;11.602;2023-11-21T05:34:28;3.63;;;1.33;;
990;SDS011;484;48.128;11.602;2023-11-21T05:37:13;0.70;;;0.70;;
990;SDS011;484;48.128;11.602;2023-11-21T05:39:59;1.10;;;1.00;;
990;SDS011;484;48.128;11.602;2023-11-21T05:42:50;2.30;;;0.80;;
990;SDS011;484;48.128;11.602;2023-11-21T05:45:36;1.67;;;0.90;;
990;SDS011;484;48.128;11.602;2023-11-21T05:48:21;0.90;;;0.70;;
990;SDS011;484;48.128;11.602;2023-11-21T05:51:07;2.43;;;1.13;;
990;SDS011;484;48.128;11.602;2023-11-21T05:53:52;1.10;;;1.10;;
990;SDS011;484;48.128;11.602;2023-11-21T05:56:38;2.70;;;0.80;;
990;SDS011;484;48.128;11.602;2023-11-21T05:59:24;1.93;;;0.90;;
990;SDS011;484;48.128;11.602;2023-11-21T06:02:10;1.57;;;1.47;;
990;SDS011;484;48.128;11.602;2023-11-21T06:04:55;2.43;;;1.30;;
990;SDS011;484;48.128;11.602;2023-11-21T06:07:41;1.63;;;1.23;;
990;SDS011;484;48.128;11.602;2023-11-21T06:10:26;1.33;;;1.10;;
990;SDS011;484;48.128;11.602;2023-11-21T06:13:12;1.37;;;0.90;;
990;SDS011;484;48.128;11.602;2023-11-21T06:15:59;1.90;;;1.33;;
990;SDS011;484;48.128;11.602;2023-11-21T06:18:44;1.40;;;1.23;;
990;SDS011;484;48.128;11.602;2023-11-21T06:21:30;1.30;;;1.20;;
990;SDS011;484;48.128;11.602;2023-11-21T06:24:16;4.93;;;1.97;;
990;SDS011;484;48.128;11.602;2023-11-21T06:27:03;4.53;;;1.87;;
990;SDS011;484;48.128;11.602;2023-11-21T06:29:48;1.40;;;1.30;;
990;SDS011;484;48.128;11.602;2023-11-21T06:32:35;6.20;;;1.20;;
990;SDS011;484;48.128;11.602;2023-11-21T06:35:21;1.30;;;1.20;;
990;SDS011;484;48.128;11.602;2023-11-21T06:38:06;2.40;;;1.50;;
990;SDS011;484;48.128;11.602;2023-11-21T06:40:52;1.70;;;1.00;;
990;SDS011;484;48.128;11.602;2023-11-21T06:43:38;1.90;;;1.00;;
990;SDS011;484;48.128;11.602;2023-11-21T06:46:24;2.70;;;1.23;;
990;SDS011;484;48.128;11.602;2023-11-21T06:49:11;9.53;;;1.60;;
990;SDS011;484;48.128;11.602;2023-11-21T06:51:56;2.70;;;1.43;;
990;SDS011;484;48.128;11.602;2023-11-21T06:54:42;1.60;;;1.30;;
990;SDS011;484;48.128;11.602;2023-11-21T06:57:29;1.00;;;1.00;;
990;SDS011;484;48.128;11.602;2023-11-21T07:00:15;0.93;;;0.93;;
990;SDS011;484;48.128;11.602;2023-11-21T07:03:01;2.93;;;1.40;;
990;SDS011;484;48.128;11.602;2023-11-21T07:05:48;3.93;;;1.10;;
990;SDS011;484;48.128;11.602;2023-11-21T07:08:33;3.03;;;1.10;;
990;SDS011;484;48.128;11.602;2023-11-21T07:11:19;7.70;;;1.10;;
990;SDS011;484;48.128;11.602;2023-11-21T07:14:04;1.33;;;0.93;;
990;SDS011;484;48.128;11.602;2023-11-21T07:16:51;1.40;;;1.10;;
990;SDS011;484;48.128;11.602;2023-11-21T07:19:36;1.20;;;0.80;;
990;SDS011;484;48.128;11.602;2023-11-21T07:22:23;2.10;;;1.43;;
990;SDS011;484;48.128;11.602;2023-11-21T07:25:08;1.30;;;1.20;;
990;SDS011;484;48.128;11.602;2023-11-21T07:27:54;2.30;;;1.30;;
990;SDS011;484;48.128;11.602;2023-11-21T07:30:40;2.07;;;1.00;;
990;SDS011;484;48.128;11.602;2023-11-21T07:33:26;1.13;;;1.03;;
990;SDS011;484;48.128;11.602;2023-11-21T07:36:12;3.73;;;0.90;;
990;SDS011;484;48.128;11.602;2023-11-21T07:38:59;0.90;;;0.90;;
990;SDS011;484;48.128;11.602;2023-11-21T07:41:45;0.70;;;0.67;;
990;SDS011;484;48.128;11.602;2023-11-21T07:44:32;1.13;;;0.70;;
990;SDS011;484;48.128;11.602;2023-11-21T07:47:17;2.60;;;1.67;;
990;SDS011;484;48.128;11.602;2023-11-21T07:50:03;1.23;;;1.10;;
990;SDS011;484;48.128;11.602;2023-11-21T07:52:49;1.00;;;1.00;;
990;SDS011;484;48.128;11.602;2023-11-21T07:55:36;1.60;;;0.77;;
990;SDS011;484;48.128;11.602;2023-11-21T07:58:22;1.40;;;1.20;;
990;SDS011;484;48.128;11.602;2023-11-21T08:01:07;1.50;;;1.40;;
990;SDS011;484;48.128;11.602;2023-11-21T08:03:53;0.80;;;0.80;;
990;SDS011;484;48.128;11.602;2023-11-21T08:06:40;1.07;;;0.90;;
990;SDS011;484;48.128;11.602;2023-11-21T08:09:26;1.17;;;0.90;;
990;SDS011;484;48.128;11.602;2023-11-21T08:12:13;1.27;;;0.80;;
990;SDS011;484;48.128;11.602;2023-11-21T08:14:59;1.07;;;0.97;;
990;SDS011;484;48.128;11.602;2023-11-21T08:17:44;2.90;;;1.10;;
990;SDS011;484;48.128;11.602;2023-11-21T08:20:29;1.10;;;1.00;;
990;SDS011;484;48.128;11.602;2023-11-21T08:23:15;2.60;;;1.33;;
990;SDS011;484;48.128;11.602;2023-11-21T08:26:01;0.90;;;0.90;;
990;SDS011;484;48.128;11.602;2023-11-21T08:28:48;0.87;;;0.73;;
990;SDS011;484;48.128;11.602;2023-11-21T08:31:35;0.93;;;0.70;;
990;SDS011;484;48.128;11.602;2023-11-21T08:34:21;1.53;;;1.10;;
990;SDS011;484;48.128;11.602;2023-11-21T08:37:06;0.80;;;0.80;;
990;SDS011;484;48.128;11.602;2023-11-21T08:39:51;1.40;;;1.30;;
990;SDS011;484;48.128;11.602;2023-11-21T08:42:37;0.90;;;0.80;;
990;SDS011;484;48.128;11.602;2023-11-21T08:45:24;2.60;;;1.00;;
990;SDS011;484;48.128;11.602;2023-11-21T08:48:10;1.33;;;1.03;;
990;SDS011;484;48.128;11.602;2023-11-21T08:50:56;1.60;;;1.10;;
990;SDS011;484;48.128;11.602;2023-11-21T08:53:41;0.80;;;0.80;;
990;SDS011;484;48.128;11.602;2023-11-21T08:56:27;1.10;;;1.00;;
990;SDS011;484;48.128;11.602;2023-11-21T08:59:12;3.70;;;1.00;;
990;SDS011;484;48.128;11.602;2023-11-21T09:02:00;1.90;;;1.10;;
990;SDS011;484;48.128;11.602;2023-11-21T09:04:45;1.33;;;1.00;;
990;SDS011;484;48.128;11.602;2023-11-21T09:07:30;2.40;;;1.10;;
990;SDS011;484;48.128;11.602;2023-11-21T09:10:16;2.30;;;1.07;;
990;SDS011;484;48.128;11.602;2023-11-21T09:13:01;2.57;;;0.90;;
990;SDS011;484;48.128;11.602;2023-11-21T09:15:47;1.47;;;1.30;;
990;SDS011;484;48.128;11.602;2023-11-21T09:18:34;1.73;;;1.23;;
990;SDS011;484;48.128;11.602;2023-11-21T09:21:20;0.70;;;0.70;;
990;SDS011;484;48.128;11.602;2023-11-21T09:24:06;1.20;;;1.10;;
990;SDS011;484;48.128;11.602;2023-11-21T09:26:52;0.77;;;0.77;;
990;SDS011;484;48.128;11.602;2023-11-21T09:29:38;0.80;;;0.80;;
990;SDS011;484;48.128;11.602;2023-11-21T09:32:23;2.90;;;1.00;;
990;SDS011;484;48.128;11.602;2023-11-21T09:35:10;0.90;;;0.90;;
990;SDS011;484;48.128;11.602;2023-11-21T09:37:57;1.17;;;1.00;;
990;SDS011;484;48.128;11.602;2023-11-21T09:40:45;1.00;;;1.00;;
990;SDS011;484;48.128;11.602;2023-11-21T09:43:30;2.87;;;1.30;;
990;SDS011;484;48.128;11.602;2023-11-21T09:46:17;2.97;;;1.47;;
990;SDS011;484;48.128;11.602;2023-11-21T09:49:04;3.47;;;1.30;;
990;SDS011;484;48.128;11.602;2023-11-21T09:51:54;1.90;;;1.50;;
990;SDS011;484;48.128;11.602;2023-11-21T09:54:41;1.97;;;1.57;;
990;SDS011;484;48.128;11.602;2023-11-21T09:57:26;1.17;;;1.10;;
990;SDS011;484;48.128;11.602;2023-11-21T10:00:12;2.60;;;1.60;;
990;SDS011;484;48.128;11.602;2023-11-21T10:03:01;0.80;;;0.80;;
990;SDS011;484;48.128;11.602;2023-11-21T10:05:47;1.13;;;1.03;;
990;SDS011;484;48.128;11.602;2023-11-21T10:08:35;1.50;;;1.40;;
990;SDS011;484;48.128;11.602;2023-11-21T10:11:21;0.70;;;0.70;;
990;SDS011;484;48.128;11.602;2023-11-21T10:14:08;1.20;;;1.10;;
990;SDS011;484;48.128;11.602;2023-11-21T10:16:56;0.87;;;0.87;;
990;SDS011;484;48.128;11.602;2023-11-21T10:19:42;2.27;;;0.97;;
990;SDS011;484;48.128;11.602;2023-11-21T10:22:27;4.50;;;1.97;;
990;SDS011;484;48.128;11.602;2023-11-21T10:25:14;0.80;;;0.80;;
990;SDS011;484;48.128;11.602;2023-11-21T10:28:01;1.10;;;1.00;;
990;SDS011;484;48.128;11.602;2023-11-21T10:30:49;1.10;;;1.00;;
990;SDS011;484;48.128;11.602;2023-11-21T10:33:34;1.10;;;1.00;;
990;SDS011;484;48.128;11.602;2023-11-21T10:36:26;1.40;;;1.03;;
990;SDS011;484;48.128;11.602;2023-11-21T10:39:13;0.90;;;0.90;;
990;SDS011;484;48.128;11.602;2023-11-21T10:42:02;1.10;;;1.10;;
990;SDS011;484;48.128;11.602;2023-11-21T10:44:50;2.17;;;1.00;;
990;SDS011;484;48.128;11.602;2023-11-21T10:47:35;2.17;;;1.10;;
990;SDS011;484;48.128;11.602;2023-11-21T10:50:21;0.70;;;0.70;;
990;SDS011;484;48.128;11.602;2023-11-21T10:53:06;2.50;;;1.00;;
990;SDS011;484;48.128;11.602;2023-11-21T10:55:58;1.40;;;1.30;;
990;SDS011;484;48.128;11.602;2023-11-21T10:58:49;1.33;;;0.90;;
990;SDS011;484;48.128;11.602;2023-11-21T11:01:34;1.33;;;1.10;;
990;SDS011;484;48.128;11.602;2023-11-21T11:04:20;0.93;;;0.90;;
990;SDS011;484;48.128;11.602;2023-11-21T11:07:06;1.73;;;1.20;;
990;SDS011;484;48.128;11.602;2023-11-21T11:09:56;1.90;;;1.00;;
990;SDS011;484;48.128;11.602;2023-11-21T11:12:43;2.50;;;1.00;;
990;SDS011;484;48.128;11.602;2023-11-21T11:15:32;1.30;;;1.20;;
990;SDS011;484;48.128;11.602;2023-11-21T11:18:18;1.20;;;1.10;;
990;SDS011;484;48.128;11.602;2023-11-21T11:21:07;3.87;;;1.67;;
990;SDS011;484;48.128;11.602;2023-11-21T11:24:20;2.23;;;0.90;;
990;SDS011;484;48.128;11.602;2023-11-21T11:27:21;1.87;;;1.10;;
990;SDS011;484;48.128;11.602;2023-11-21T11:30:12;9.03;;;1.70;;
990;SDS011;484;48.128;11.602;2023-11-21T11:33:11;1.33;;;1.10;;
990;SDS011;484;48.128;11.602;2023-11-21T11:36:10;2.40;;;1.80;;
990;SDS011;484;48.128;11.602;2023-11-21T11:39:00;1.23;;;1.13;;
990;SDS011;484;48.128;11.602;2023-11-21T11:41:46;0.93;;;0.90;;
990;SDS011;484;48.128;11.602;2023-11-21T11:44:47;1.20;;;1.10;;
990;SDS011;484;48.128;11.602;2023-11-21T11:47:36;1.10;;;1.10;;
990;SDS011;484;48.128;11.602;2023-11-21T11:50:25;2.00;;;1.20;;
990;SDS011;484;48.128;11.602;2023-11-21T11:53:14;1.20;;;1.10;;
990;SDS011;484;48.128;11.602;2023-11-21T11:56:13;3.70;;;1.50;;
990;SDS011;484;48.128;11.602;2023-11-21T11:59:05;1.77;;;1.10;;
990;SDS011;484;48.128;11.602;2023-11-21T12:01:53;3.07;;;1.50;;
990;SDS011;484;48.128;11.602;2023-11-21T12:04:42;2.70;;;1.90;;
990;SDS011;484;48.128;11.602;2023-11-21T12:07:40;1.20;;;1.00;;
990;SDS011;484;48.128;11.602;2023-11-21T12:10:28;5.53;;;1.20;;
990;SDS011;484;48.128;11.602;2023-11-21T12:13:14;0.93;;;0.93;;
990;SDS011;484;48.128;11.602;2023-11-21T12:16:00;2.00;;;1.00;;
990;SDS011;484;48.128;11.602;2023-11-21T12:18:46;0.83;;;0.83;;
990;SDS011;484;48.128;11.602;2023-11-21T12:21:32;1.20;;;1.10;;
990;SDS011;484;48.128;11.602;2023-11-21T12:24:20;1.93;;;1.80;;
990;SDS011;484;48.128;11.602;2023-11-21T12:27:05;1.93;;;1.63;;
990;SDS011;484;48.128;11.602;2023-11-21T12:29:51;1.00;;;0.90;;
990;SDS011;484;48.128;11.602;2023-11-21T12:32:36;0.90;;;0.90;;
990;SDS011;484;48.128;11.602;2023-11-21T12:35:23;1.87;;;1.60;;
990;SDS011;484;48.128;11.602;2023-11-21T12:38:09;0.80;;;0.80;;
990;SDS011;484;48.128;11.602;2023-11-21T12:40:56;1.27;;;1.10;;
990;SDS011;484;48.128;11.602;2023-11-21T12:43:41;1.80;;;0.80;;
990;SDS011;484;48.128;11.602;2023-11-21T12:46:27;1.80;;;0.90;;
990;SDS011;484;48.128;11.602;2023-11-21T12:49:16;1.20;;;1.10;;
990;SDS011;484;48.128;11.602;2023-11-21T12:52:02;2.57;;;1.33;;
990;SDS011;484;48.128;11.602;2023-11-21T12:54:48;2.20;;;1.27;;
990;SDS011;484;48.128;11.602;2023-11-21T12:57:35;1.43;;;0.90;;
990;SDS011;484;48.128;11.602;2023-11-21T13:00:27;0.80;;;0.80;;
990;SDS011;484;48.128;11.602;2023-11-21T13:03:14;1.20;;;0.93;;
990;SDS011;484;48.128;11.602;2023-11-21T13:06:03;1.50;;;1.10;;
990;SDS011;484;48.128;11.602;2023-11-21T13:08:49;2.33;;;0.90;;
990;SDS011;484;48.128;11.602;2023-11-21T13:11:34;3.07;;;1.30;;
990;SDS011;484;48.128;11.602;2023-11-21T13:14:21;3.37;;;0.77;;
990;SDS011;484;48.128;11.602;2023-11-21T13:17:14;0.60;;;0.60;;
990;SDS011;484;48.128;11.602;2023-11-21T13:20:00;0.70;;;0.70;;
990;SDS011;484;48.128;11.602;2023-11-21T13:22:50;0.97;;;0.80;;
990;SDS011;484;48.128;11.602;2023-11-21T13:25:37;0.73;;;0.73;;
990;SDS011;484;48.128;11.602;2023-11-21T13:28:24;1.10;;;0.90;;
990;SDS011;484;48.128;11.602;2023-11-21T13:31:17;1.07;;;0.90;;
990;SDS011;484;48.128;11.602;2023-11-21T13:34:15;2.10;;;1.30;;
990;SDS011;484;48.128;11.602;2023-11-21T13:37:03;3.40;;;1.30;;
990;SDS011;484;48.128;11.602;2023-11-21T13:39:51;1.00;;;0.90;;
990;SDS011;484;48.128;11.602;2023-11-21T13:42:37;0.90;;;0.90;;
990;SDS011;484;48.128;11.602;2023-11-21T13:45:22;8.87;;;6.47;;
990;SDS011;484;48.128;11.602;2023-11-21T13:48:10;2.93;;;1.30;;
990;SDS011;484;48.128;11.602;2023-11-21T13:50:57;4.47;;;1.63;;
990;SDS011;484;48.128;11.602;2023-11-21T13:53:46;2.23;;;1.70;;
990;SDS011;484;48.128;11.602;2023-11-21T13:56:36;1.50;;;1.40;;
990;SDS011;484;48.128;11.602;2023-11-21T13:59:22;2.67;;;1.30;;
990;SDS011;484;48.128;11.602;2023-11-21T14:02:09;7.33;;;1.30;;
990;SDS011;484;48.128;11.602;2023-11-21T14:05:02;2.30;;;1.70;;
990;SDS011;484;48.128;11.602;2023-11-21T14:07:52;1.70;;;1.50;;
990;SDS011;484;48.128;11.602;2023-11-21T14:10:39;0.83;;;0.83;;
990;SDS011;484;48.128;11.602;2023-11-21T14:13:27;0.90;;;0.90;;
990;SDS011;484;48.128;11.602;2023-11-21T14:16:14;0.87;;;0.80;;
990;SDS011;484;48.128;11.602;2023-11-21T14:19:05;1.20;;;1.10;;
990;SDS011;484;48.128;11.602;2023-11-21T14:22:00;1.30;;;1.10;;
990;SDS011;484;48.128;11.602;2023-11-21T14:24:46;7.23;;;1.60;;
990;SDS011;484;48.128;11.602;2023-11-21T14:27:33;1.00;;;0.90;;
990;SDS011;484;48.128;11.602;2023-11-21T14:30:19;1.27;;;1.20;;
990;SDS011;484;48.128;11.602;2023-11-21T14:33:06;1.27;;;1.10;;
990;SDS011;484;48.128;11.602;2023-11-21T14:35:52;1.90;;;0.87;;
990;SDS011;484;48.128;11.602;2023-11-21T14:38:39;1.10;;;1.00;;
990;SDS011;484;48.128;11.602;2023-11-21T14:41:24;0.70;;;0.70;;
990;SDS011;484;48.128;11.602;2023-11-21T14:44:11;1.13;;;0.80;;
990;SDS011;484;48.128;11.602;2023-11-21T14:46:58;0.70;;;0.70;;
990;SDS011;484;48.128;11.602;2023-11-21T14:49:44;2.10;;;1.03;;
990;SDS011;484;48.128;11.602;2023-11-21T14:52:36;2.50;;;1.17;;
990;SDS011;484;48.128;11.602;2023-11-21T14:55:32;1.03;;;0.93;;
990;SDS011;484;48.128;11.602;2023-11-21T14:58:29;1.33;;;1.30;;
990;SDS011;484;48.128;11.602;2023-11-21T15:01:13;0.70;;;0.70;;
990;SDS011;484;48.128;11.602;2023-11-21T15:04:08;2.10;;;0.80;;
990;SDS011;484;48.128;11.602;2023-11-21T15:06:58;1.03;;;0.80;;
990;SDS011;484;48.128;11.602;2023-11-21T15:09:43;0.90;;;0.90;;
990;SDS011;484;48.128;11.602;2023-11-21T15:12:30;1.93;;;1.80;;
990;SDS011;484;48.128;11.602;2023-11-21T15:15:17;0.97;;;0.97;;
990;SDS011;484;48.128;11.602;2023-11-21T15:18:02;1.37;;;1.20;;
990;SDS011;484;48.128;11.602;2023-11-21T15:20:47;1.43;;;0.90;;
990;SDS011;484;48.128;11.602;2023-11-21T15:23:33;1.70;;;1.60;;
990;SDS011;484;48.128;11.602;2023-11-21T15:26:19;1.80;;;1.50;;
990;SDS011;484;48.128;11.602;2023-11-21T15:29:07;2.40;;;1.30;;
990;SDS011;484;48.128;11.602;2023-11-21T15:31:52;0.80;;;0.80;;
990;SDS011;484;48.128;11.602;2023-11-21T15:34:39;1.57;;;1.10;;
990;SDS011;484;48.128;11.602;2023-11-21T15:37:25;1.90;;;1.70;;
990;SDS011;484;48.128;11.602;2023-11-21T15:40:12;2.60;;;1.23;;
990;SDS011;484;48.128;11.602;2023-11-21T15:42:58;2.40;;;1.57;;
990;SDS011;484;48.128;11.602;2023-11-21T15:45:48;2.87;;;1.00;;
990;SDS011;484;48.128;11.602;2023-11-21T15:48:34;1.87;;;1.27;;
990;SDS011;484;48.128;11.602;2023-11-21T15:51:19;1.40;;;1.30;;
990;SDS011;484;48.128;11.602;2023-11-21T15:54:05;1.33;;;1.23;;
990;SDS011;484;48.128;11.602;2023-11-21T15:56:51;1.83;;;1.73;;
990;SDS011;484;48.128;11.602;2023-11-21T15:59:39;0.87;;;0.87;;
990;SDS011;484;48.128;11.602;2023-11-21T16:02:27;4.03;;;2.37;;
990;SDS011;484;48.128;11.602;2023-11-21T16:05:14;3.50;;;2.60;;
990;SDS011;484;48.128;11.602;2023-11-21T16:08:01;17.40;;;15.00;;
990;SDS011;484;48.128;11.602;2023-11-21T16:10:46;14.17;;;12.73;;
990;SDS011;484;48.128;11.602;2023-11-21T16:13:32;12.90;;;10.40;;
990;SDS011;484;48.128;11.602;2023-11-21T16:16:20;2.30;;;1.73;;
990;SDS011;484;48.128;11.602;2023-11-21T16:19:08;1.50;;;1.40;;
990;SDS011;484;48.128;11.602;2023-11-21T16:21:53;1.87;;;1.77;;
990;SDS011;484;48.128;11.602;2023-11-21T16:24:39;1.23;;;1.17;;
990;SDS011;484;48.128;11.602;2023-11-21T16:27:24;7.83;;;1.03;;
990;SDS011;484;48.128;11.602;2023-11-21T16:30:10;1.43;;;1.33;;
990;SDS011;484;48.128;11.602;2023-11-21T16:32:56;1.77;;;1.67;;
990;SDS011;484;48.128;11.602;2023-11-21T16:35:43;5.27;;;2.23;;
990;SDS011;484;48.128;11.602;2023-11-21T16:38:30;1.50;;;1.40;;
990;SDS011;484;48.128;11.602;2023-11-21T16:41:16;1.93;;;1.83;;
990;SDS011;484;48.128;11.602;2023-11-21T16:44:02;2.37;;;2.13;;
990;SDS011;484;48.128;11.602;2023-11-21T16:46:48;2.47;;;1.90;;
990;SDS011;484;48.128;11.602;2023-11-21T16:49:36;10.97;;;9.97;;
990;SDS011;484;48.128;11.602;2023-11-21T16:52:24;16.07;;;12.83;;
990;SDS011;484;48.128;11.602;2023-11-21T16:55:09;2.27;;;2.07;;
990;SDS011;484;48.128;11.602;2023-11-21T16:57:55;1.87;;;1.77;;
990;SDS011;484;48.128;11.602;2023-11-21T17:00:41;4.23;;;2.10;;
990;SDS011;484;48.128;11.602;2023-11-21T17:03:26;2.87;;;2.67;;
990;SDS011;484;48.128;11.602;2023-11-21T17:06:12;1.70;;;1.70;;
990;SDS011;484;48.128;11.602;2023-11-21T17:08:59;2.13;;;1.97;;
990;SDS011;484;48.128;11.602;2023-11-21T17:11:47;2.13;;;1.93;;
990;SDS011;484;48.128;11.602;2023-11-21T17:14:33;1.77;;;1.67;;
990;SDS011;484;48.128;11.602;2023-11-21T17:17:18;3.67;;;2.20;;
990;SDS011;484;48.128;11.602;2023-11-21T17:20:04;2.47;;;2.30;;
990;SDS011;484;48.128;11.602;2023-11-21T17:22:53;2.30;;;2.10;;
990;SDS011;484;48.128;11.602;2023-11-21T17:25:41;1.93;;;1.83;;
990;SDS011;484;48.128;11.602;2023-11-21T17:28:26;1.87;;;1.70;;
990;SDS011;484;48.128;11.602;2023-11-21T17:31:12;1.73;;;1.63;;
990;SDS011;484;48.128;11.602;2023-11-21T17:33:57;1.70;;;1.60;;